createdAt,value
2019-04-11T00:00:09.476Z,4.60
2019-04-11T00:02:43.252Z,6.23
2019-04-11T00:05:18.869Z,6.63
2019-04-11T00:07:52.578Z,7.63
2019-04-11T00:10:29.274Z,8.50
2019-04-11T00:16:49.851Z,8.63
2019-04-11T00:19:23.738Z,8.20
2019-04-11T00:21:57.376Z,7.60
2019-04-11T00:24:31.335Z,8.10
2019-04-11T00:27:05.713Z,8.47
2019-04-11T00:33:16.832Z,7.53
2019-04-11T00:35:50.588Z,7.67
2019-04-11T00:38:25.583Z,7.90
2019-04-11T00:40:59.709Z,7.83
2019-04-11T00:43:37.712Z,7.63
2019-04-11T00:46:09.904Z,7.60
2019-04-11T00:48:44.005Z,7.87
2019-04-11T00:51:18.737Z,7.80
2019-04-11T00:53:54.133Z,7.57
2019-04-11T00:56:28.408Z,7.93
2019-04-11T00:59:02.547Z,8.13
2019-04-11T01:01:36.983Z,7.30
2019-04-11T01:04:11.621Z,8.70
2019-04-11T01:06:45.391Z,7.53
2019-04-11T01:09:20.011Z,7.30
2019-04-11T01:11:54.307Z,6.70
2019-04-11T01:14:28.026Z,5.93
2019-04-11T01:17:03.126Z,5.27
2019-04-11T01:19:36.892Z,4.43
2019-04-11T01:22:10.784Z,3.93
2019-04-11T01:24:44.567Z,4.17
2019-04-11T01:27:18.354Z,4.30
2019-04-11T01:29:52.160Z,3.50
2019-04-11T01:32:26.383Z,4.37
2019-04-11T01:35:01.235Z,4.00
2019-04-11T01:37:35.688Z,3.40
2019-04-11T01:40:12.096Z,3.43
2019-04-11T01:42:47.093Z,2.87
2019-04-11T01:45:22.398Z,3.17
2019-04-11T01:48:01.464Z,3.10
2019-04-11T01:50:36.959Z,2.40
2019-04-11T01:53:13.049Z,3.20
2019-04-11T01:55:46.994Z,2.20
2019-04-11T01:58:20.572Z,2.70
2019-04-11T02:01:01.900Z,2.77
2019-04-11T02:03:49.740Z,2.70
2019-04-11T02:06:23.726Z,3.57
2019-04-11T02:08:57.769Z,3.80
2019-04-11T02:11:31.852Z,3.90
2019-04-11T02:17:44.612Z,3.40
2019-04-11T02:20:18.284Z,3.40
2019-04-11T02:22:57.131Z,3.10
2019-04-11T02:25:32.566Z,3.03
2019-04-11T02:28:08.585Z,2.80
2019-04-11T02:34:19.350Z,2.53
2019-04-11T02:36:53.701Z,3.27
2019-04-11T02:39:29.869Z,4.27
2019-04-11T02:42:04.231Z,5.17
2019-04-11T02:44:56.156Z,6.00
2019-04-11T02:47:18.467Z,5.47
2019-04-11T02:49:49.590Z,6.30
2019-04-11T02:52:25.134Z,6.63
2019-04-11T02:55:03.433Z,6.67
2019-04-11T02:57:38.582Z,6.17
2019-04-11T03:00:13.662Z,5.27
2019-04-11T03:02:47.961Z,5.80
2019-04-11T03:05:24.441Z,5.50
2019-04-11T03:08:00.580Z,4.77
2019-04-11T03:10:36.054Z,4.60
2019-04-11T03:13:10.481Z,4.07
2019-04-11T03:15:59.415Z,4.13
2019-04-11T03:18:40.746Z,3.87
2019-04-11T03:21:04.495Z,4.00
2019-04-11T03:23:35.464Z,4.13
2019-04-11T03:26:12.411Z,4.07
2019-04-11T03:28:49.744Z,3.87
2019-04-11T03:35:02.653Z,4.60
2019-04-11T03:37:13.751Z,4.90
2019-04-11T03:39:28.124Z,4.37
2019-04-11T03:42:05.846Z,5.30
2019-04-11T03:48:21.942Z,6.60
2019-04-11T03:50:44.694Z,6.17
2019-04-11T03:53:19.314Z,4.73
2019-04-11T03:55:55.907Z,5.10
2019-04-11T03:58:31.112Z,4.80
2019-04-11T04:04:32.789Z,4.37
2019-04-11T04:07:07.312Z,4.40
2019-04-11T04:09:43.989Z,4.33
2019-04-11T04:12:18.678Z,4.63
2019-04-11T04:14:54.482Z,4.47
2019-04-11T04:17:36.043Z,3.93
2019-04-11T04:20:30.001Z,4.73
2019-04-11T04:23:14.153Z,4.17
2019-04-11T04:25:49.247Z,4.03
2019-04-11T04:28:23.768Z,4.27
2019-04-11T04:30:58.005Z,4.27
2019-04-11T04:33:35.433Z,4.03
2019-04-11T04:36:10.707Z,3.73
2019-04-11T04:38:44.566Z,3.37
2019-04-11T04:41:29.759Z,3.57
2019-04-11T04:43:56.958Z,3.30
2019-04-11T04:46:47.064Z,2.60
2019-04-11T04:49:06.961Z,2.10
2019-04-11T04:51:41.590Z,2.90
2019-04-11T04:54:17.745Z,3.20
2019-04-11T04:56:52.459Z,3.67
2019-04-11T04:59:27.886Z,4.20
2019-04-11T05:02:03.778Z,5.47
2019-04-11T05:04:38.324Z,3.17
2019-04-11T05:07:12.604Z,3.13
2019-04-11T05:09:47.919Z,2.97
2019-04-11T05:12:22.655Z,2.33
2019-04-11T05:18:34.261Z,2.37
2019-04-11T05:21:08.670Z,2.70
2019-04-11T05:23:42.711Z,3.33
2019-04-11T05:26:17.299Z,3.17
2019-04-11T05:28:51.120Z,3.43
2019-04-11T05:35:11.471Z,4.63
2019-04-11T05:37:45.243Z,5.03
2019-04-11T05:40:19.085Z,5.50
2019-04-11T05:42:54.215Z,4.77
2019-04-11T05:45:29.539Z,4.70
2019-04-11T05:48:05.240Z,5.00
2019-04-11T05:50:43.320Z,4.93
2019-04-11T05:53:15.812Z,5.00
2019-04-11T05:55:49.571Z,5.07
2019-04-11T05:58:24.170Z,4.87
2019-04-11T06:01:11.219Z,4.20
2019-04-11T06:03:45.482Z,4.23
2019-04-11T06:06:37.757Z,2.60
2019-04-11T06:09:15.882Z,2.83
2019-04-11T06:11:58.965Z,2.93
2019-04-11T06:14:47.183Z,2.60
2019-04-11T06:17:21.926Z,1.83
2019-04-11T06:20:15.456Z,2.10
2019-04-11T06:22:56.668Z,2.20
2019-04-11T06:25:37.176Z,2.37
2019-04-11T06:28:11.797Z,3.20
2019-04-11T06:34:39.674Z,4.13
2019-04-11T06:37:27.719Z,4.43
2019-04-11T06:40:04.101Z,4.90
2019-04-11T06:42:39.444Z,5.70
2019-04-11T06:49:02.434Z,5.70
2019-04-11T06:51:40.896Z,4.60
2019-04-11T06:54:25.499Z,6.10
2019-04-11T06:57:01.248Z,6.80
2019-04-11T06:59:36.603Z,6.75
2019-04-11T07:05:39.237Z,6.00
2019-04-11T07:08:13.815Z,7.20
2019-04-11T07:10:55.280Z,7.63
2019-04-11T07:13:33.667Z,7.33
2019-04-11T07:16:07.402Z,6.43
2019-04-11T07:18:42.743Z,7.20
2019-04-11T07:21:17.071Z,8.00
2019-04-11T07:24:08.414Z,8.07
2019-04-11T07:26:43.888Z,6.70
2019-04-11T07:29:35.954Z,7.53
2019-04-11T07:32:11.683Z,7.17
2019-04-11T07:35:00.033Z,7.23
2019-04-11T07:37:34.536Z,4.50
2019-04-11T07:40:15.566Z,1.00
2019-04-11T07:42:52.767Z,0.60
2019-04-11T07:48:37.903Z,0.97
2019-04-11T07:51:13.375Z,1.00
2019-04-11T07:53:48.518Z,1.10
2019-04-11T07:56:35.223Z,1.10
2019-04-11T07:59:13.233Z,1.00
2019-04-11T08:05:36.557Z,1.20
2019-04-11T08:08:30.339Z,0.83
2019-04-11T08:11:15.774Z,1.10
2019-04-11T08:14:04.137Z,1.10
2019-04-11T08:16:51.843Z,0.90
2019-04-11T08:19:43.173Z,0.73
2019-04-11T08:22:19.063Z,0.60
2019-04-11T08:25:11.168Z,0.70
2019-04-11T08:27:54.661Z,1.00
2019-04-11T08:30:24.656Z,0.80
2019-04-11T08:33:00.308Z,0.70
2019-04-11T08:35:40.182Z,0.73
2019-04-11T08:38:18.505Z,0.80
2019-04-11T08:40:56.904Z,1.00
2019-04-11T08:43:35.246Z,1.10
2019-04-11T08:49:48.016Z,1.00
2019-04-11T08:52:26.442Z,1.07
2019-04-11T08:55:02.191Z,1.20
2019-04-11T08:57:38.174Z,0.90
2019-04-11T09:00:28.367Z,0.80
2019-04-11T09:06:30.927Z,0.80
2019-04-11T09:09:27.069Z,0.90
2019-04-11T09:12:03.072Z,0.70
2019-04-11T09:14:48.526Z,1.00
2019-04-11T09:17:24.160Z,0.90
2019-04-11T09:19:59.472Z,1.30
2019-04-11T09:22:37.548Z,0.97
2019-04-11T09:25:15.292Z,0.90
2019-04-11T09:28:09.173Z,0.70
2019-04-11T09:30:58.006Z,0.60
2019-04-11T09:33:37.987Z,0.80
2019-04-11T09:36:29.537Z,0.70
2019-04-11T09:39:11.450Z,0.83
2019-04-11T09:41:56.626Z,0.77
2019-04-11T09:44:47.238Z,0.60
2019-04-11T09:47:22.623Z,0.80
2019-04-11T09:49:58.015Z,0.53
2019-04-11T09:52:33.415Z,0.80
2019-04-11T09:55:11.809Z,1.10
2019-04-11T09:57:48.277Z,0.63
2019-04-11T10:00:43.018Z,0.70
2019-04-11T10:03:19.534Z,0.73
2019-04-11T10:06:12.746Z,1.00
2019-04-11T10:08:49.160Z,0.80
2019-04-11T10:11:37.918Z,0.90
2019-04-11T10:14:13.589Z,0.80
2019-04-11T10:17:48.493Z,0.80
2019-04-11T10:20:22.264Z,0.80
2019-04-11T10:23:16.514Z,0.60
2019-04-11T10:25:51.758Z,0.80
2019-04-11T10:28:43.614Z,0.70
2019-04-11T10:31:20.225Z,0.60
2019-04-11T10:34:13.201Z,0.70
2019-04-11T10:36:49.608Z,0.60
2019-04-11T10:39:33.707Z,0.70
2019-04-11T10:42:12.548Z,0.60
2019-04-11T10:45:04.619Z,0.70
2019-04-11T10:47:39.242Z,0.70
2019-04-11T10:50:31.866Z,0.60
2019-04-11T10:53:06.811Z,0.50
2019-04-11T10:55:49.521Z,0.70
2019-04-11T10:58:25.068Z,0.80
2019-04-11T11:01:01.878Z,0.63
2019-04-11T11:03:38.260Z,0.73
2019-04-11T11:06:13.719Z,0.87
2019-04-11T11:08:51.698Z,0.60
2019-04-11T11:11:30.447Z,0.90
2019-04-11T11:14:08.461Z,0.80
2019-04-11T11:20:41.558Z,0.70
2019-04-11T11:23:20.464Z,0.63
2019-04-11T11:26:09.034Z,0.70
2019-04-11T11:28:50.904Z,0.70
2019-04-11T11:38:03.885Z,0.80
2019-04-11T11:40:56.293Z,0.73
2019-04-11T11:43:32.855Z,0.60
2019-04-11T11:46:26.769Z,0.50
2019-04-11T11:52:54.471Z,0.57
2019-04-11T11:55:38.362Z,0.70
2019-04-11T11:58:25.799Z,0.90
2019-04-11T12:01:04.532Z,0.83
2019-04-11T12:03:44.531Z,0.70
2019-04-11T12:06:22.286Z,0.80
2019-04-11T12:09:14.069Z,1.00
2019-04-11T12:11:55.988Z,1.10
2019-04-11T12:14:49.584Z,1.10
2019-04-11T12:21:03.201Z,1.10
2019-04-11T12:24:02.142Z,0.70
2019-04-11T12:26:33.724Z,0.70
2019-04-11T12:29:14.293Z,0.85
2019-04-11T12:35:40.044Z,0.80
2019-04-11T12:38:20.317Z,0.70
2019-04-11T12:41:11.325Z,0.80
2019-04-11T12:43:46.743Z,0.60
2019-04-11T12:46:29.728Z,0.60
2019-04-11T12:52:41.431Z,0.43
2019-04-11T12:55:32.963Z,0.60
2019-04-11T12:58:08.183Z,0.70
2019-04-11T13:00:59.964Z,0.50
2019-04-11T13:03:42.263Z,0.57
2019-04-11T13:06:20.475Z,0.80
2019-04-11T13:09:11.991Z,0.60
2019-04-11T13:11:53.310Z,0.90
2019-04-11T13:14:45.050Z,0.60
2019-04-11T13:21:12.155Z,0.87
2019-04-11T13:23:56.393Z,0.90
2019-04-11T13:26:47.954Z,1.40
2019-04-11T13:29:28.907Z,1.10
2019-04-11T13:32:06.713Z,1.00
2019-04-11T13:38:36.797Z,1.40
2019-04-11T13:41:28.369Z,1.10
2019-04-11T13:44:03.555Z,1.93
2019-04-11T13:46:38.957Z,1.87
2019-04-11T13:49:20.765Z,1.10
2019-04-11T13:52:04.839Z,1.70
2019-04-11T13:54:49.285Z,1.60
2019-04-11T13:57:24.539Z,1.20
2019-04-11T14:00:16.289Z,1.60
2019-04-11T14:06:30.250Z,1.50
2019-04-11T14:09:16.655Z,1.30
2019-04-11T14:11:50.379Z,0.90
2019-04-11T14:14:25.478Z,1.00
2019-04-11T14:17:00.770Z,1.43
2019-04-11T14:19:36.173Z,2.00
2019-04-11T14:22:13.564Z,1.60
2019-04-11T14:24:54.555Z,1.73
2019-04-11T14:27:29.745Z,2.23
2019-04-11T14:30:06.141Z,2.23
2019-04-11T14:36:34.846Z,2.43
2019-04-11T14:39:10.401Z,2.53
2019-04-11T14:42:04.721Z,3.13
2019-04-11T14:44:40.072Z,3.00
2019-04-11T14:47:27.936Z,3.50
2019-04-11T14:54:01.695Z,3.30
2019-04-11T14:56:53.028Z,2.63
2019-04-11T14:59:34.907Z,3.60
2019-04-11T15:02:18.799Z,2.70
2019-04-11T15:08:28.323Z,2.23
2019-04-11T15:11:03.649Z,1.90
2019-04-11T15:13:38.198Z,1.97
2019-04-11T15:16:31.850Z,1.70
2019-04-11T15:19:05.615Z,2.00
2019-04-11T15:21:41.120Z,1.90
2019-04-11T15:24:15.009Z,2.10
2019-04-11T15:26:53.440Z,2.03
2019-04-11T15:29:28.648Z,2.00
2019-04-11T15:32:09.941Z,2.20
2019-04-11T15:34:45.255Z,1.80
2019-04-11T15:37:22.291Z,1.60
2019-04-11T15:40:06.418Z,1.80
2019-04-11T15:42:44.732Z,2.13
2019-04-11T15:45:20.646Z,1.90
2019-04-11T15:51:12.829Z,2.00
2019-04-11T15:53:49.747Z,1.43
2019-04-11T15:56:41.912Z,1.53
2019-04-11T15:59:17.286Z,1.43
2019-04-11T16:02:08.703Z,1.40
2019-04-11T16:08:33.677Z,1.30
2019-04-11T16:11:12.206Z,1.20
2019-04-11T16:13:57.869Z,1.70
2019-04-11T16:16:45.713Z,2.50
2019-04-11T16:23:09.996Z,2.43
2019-04-11T16:25:45.146Z,1.50
2019-04-11T16:28:29.295Z,1.60
2019-04-11T16:31:03.013Z,1.50
2019-04-11T16:33:53.208Z,2.03
2019-04-11T16:36:31.214Z,1.97
2019-04-11T16:39:10.927Z,1.97
2019-04-11T16:41:54.852Z,1.90
2019-04-11T16:44:33.019Z,2.07
2019-04-11T16:47:20.265Z,1.70
2019-04-11T16:49:56.781Z,1.90
2019-04-11T16:52:29.144Z,1.80
2019-04-11T16:55:04.463Z,1.77
2019-04-11T16:57:38.174Z,2.33
2019-04-11T17:00:12.699Z,2.20
2019-04-11T17:02:48.395Z,2.60
2019-04-11T17:05:23.995Z,2.17
2019-04-11T17:07:59.042Z,1.90
2019-04-11T17:10:52.150Z,1.47
2019-04-11T17:13:27.295Z,2.23
2019-04-11T17:16:02.260Z,2.30
2019-04-11T17:22:13.045Z,1.80
2019-04-11T17:24:49.977Z,2.40
2019-04-11T17:27:23.798Z,1.90
2019-04-11T17:29:57.551Z,2.00
2019-04-11T17:32:31.143Z,2.10
2019-04-11T17:38:42.157Z,2.13
2019-04-11T17:41:16.226Z,1.80
2019-04-11T17:43:51.679Z,1.67
2019-04-11T17:46:27.027Z,2.17
2019-04-11T17:49:04.086Z,2.10
2019-04-11T17:51:39.018Z,1.63
2019-04-11T17:54:12.792Z,2.00
2019-04-11T17:56:46.461Z,2.37
2019-04-11T17:59:20.253Z,1.73
2019-04-11T18:01:54.019Z,1.60
2019-04-11T18:04:28.318Z,2.37
2019-04-11T18:07:01.990Z,2.20
2019-04-11T18:09:35.698Z,2.23
2019-04-11T18:12:09.633Z,1.83
2019-04-11T18:14:43.308Z,1.90
2019-04-11T18:17:17.039Z,2.00
2019-04-11T18:19:50.736Z,1.87
2019-04-11T18:22:24.432Z,2.30
2019-04-11T18:24:59.644Z,2.90
2019-04-11T18:27:33.324Z,2.17
2019-04-11T18:30:10.105Z,2.90
2019-04-11T18:32:43.808Z,2.90
2019-04-11T18:35:19.020Z,3.00
2019-04-11T18:37:52.900Z,2.80
2019-04-11T18:40:26.716Z,2.37
2019-04-11T18:43:00.600Z,2.50
2019-04-11T18:45:34.244Z,2.50
2019-04-11T18:48:08.662Z,2.40
2019-04-11T18:50:42.944Z,2.87
2019-04-11T18:53:19.055Z,2.83
2019-04-11T18:55:52.132Z,2.90
2019-04-11T18:58:25.784Z,2.90
2019-04-11T19:00:59.433Z,2.93
2019-04-11T19:03:36.408Z,3.07
2019-04-11T19:06:13.137Z,3.37
2019-04-11T19:08:46.600Z,2.93
2019-04-11T19:11:20.586Z,3.13
2019-04-11T19:13:54.244Z,2.60
2019-04-11T19:16:28.477Z,3.40
2019-04-11T19:19:04.489Z,2.93
2019-04-11T19:21:38.165Z,2.90
2019-04-11T19:24:13.060Z,3.30
2019-04-11T19:26:46.989Z,4.50
2019-04-11T19:29:24.801Z,3.90
2019-04-11T19:31:56.139Z,4.10
2019-04-11T19:38:23.124Z,3.77
2019-04-11T19:40:56.848Z,3.20
2019-04-11T19:43:30.509Z,3.70
2019-04-11T19:46:04.306Z,3.40
2019-04-11T19:48:37.930Z,2.80
2019-04-11T19:54:48.964Z,3.67
2019-04-11T19:57:22.700Z,3.10
2019-04-11T19:59:56.422Z,3.50
2019-04-11T20:02:31.298Z,3.47
2019-04-11T20:05:05.364Z,2.83
2019-04-11T20:07:39.013Z,3.27
2019-04-11T20:10:12.783Z,3.27
2019-04-11T20:12:48.043Z,3.40
2019-04-11T20:15:21.761Z,3.63
2019-04-11T20:17:55.399Z,3.57
2019-04-11T20:20:28.968Z,3.07
2019-04-11T20:23:02.767Z,3.60
2019-04-11T20:25:36.414Z,3.67
2019-04-11T20:28:10.072Z,3.67
2019-04-11T20:30:44.408Z,4.17
2019-04-11T20:33:27.065Z,3.97
2019-04-11T20:35:53.307Z,3.40
2019-04-11T20:38:27.095Z,3.53
2019-04-11T20:41:00.800Z,4.00
2019-04-11T20:43:34.439Z,3.63
2019-04-11T20:46:08.030Z,4.50
2019-04-11T20:48:41.765Z,4.17
2019-04-11T20:51:17.520Z,4.37
2019-04-11T20:53:50.838Z,3.47
2019-04-11T20:56:24.692Z,4.07
2019-04-11T20:58:58.426Z,4.30
2019-04-11T21:01:32.046Z,3.87
2019-04-11T21:04:05.743Z,3.30
2019-04-11T21:06:39.439Z,3.83
2019-04-11T21:09:13.431Z,3.40
2019-04-11T21:11:47.049Z,3.77
2019-04-11T21:14:20.763Z,3.80
2019-04-11T21:16:54.653Z,3.67
2019-04-11T21:19:28.247Z,3.90
2019-04-11T21:22:01.933Z,3.70
2019-04-11T21:24:35.738Z,3.67
2019-04-11T21:27:09.562Z,3.73
2019-04-11T21:29:43.226Z,4.10
2019-04-11T21:32:16.824Z,3.27
2019-04-11T21:34:50.496Z,3.93
2019-04-11T21:37:24.244Z,4.30
2019-04-11T21:39:59.595Z,4.13
2019-04-11T21:42:35.865Z,3.83
2019-04-11T21:45:08.798Z,4.03
2019-04-11T21:47:42.506Z,4.87
2019-04-11T21:53:53.146Z,4.10
2019-04-11T21:56:26.867Z,3.90
2019-04-11T21:59:00.468Z,4.03
2019-04-11T22:01:35.301Z,4.30
2019-04-11T22:04:09.844Z,4.33
2019-04-11T22:10:21.526Z,4.40
2019-04-11T22:12:55.117Z,4.13
2019-04-11T22:15:29.044Z,4.27
2019-04-11T22:18:02.900Z,4.50
2019-04-11T22:20:36.533Z,4.27
2019-04-11T22:23:10.191Z,4.53
2019-04-11T22:25:43.888Z,5.20
2019-04-11T22:28:17.690Z,4.50
2019-04-11T22:30:54.858Z,4.40
2019-04-11T22:33:37.438Z,4.13
2019-04-11T22:36:11.485Z,4.40
2019-04-11T22:38:45.302Z,4.60
2019-04-11T22:41:18.989Z,4.93
2019-04-11T22:43:52.605Z,5.13
2019-04-11T22:46:26.330Z,4.60
2019-04-11T22:48:59.980Z,4.73
2019-04-11T22:51:33.716Z,4.27
2019-04-11T22:54:07.527Z,4.57
2019-04-11T22:56:41.895Z,4.33
2019-04-11T22:59:16.613Z,5.10
2019-04-11T23:01:51.300Z,5.03
2019-04-11T23:04:25.219Z,5.23
2019-04-11T23:06:58.894Z,5.20
2019-04-11T23:09:32.620Z,5.17
2019-04-11T23:12:06.322Z,5.27
2019-04-11T23:14:40.024Z,5.30
2019-04-11T23:17:14.164Z,4.83
2019-04-11T23:19:48.461Z,5.37
2019-04-11T23:22:22.101Z,5.00
2019-04-11T23:24:55.839Z,4.83
2019-04-11T23:27:29.459Z,4.63
2019-04-11T23:30:04.315Z,4.63
2019-04-11T23:32:38.977Z,4.93
2019-04-11T23:35:12.517Z,4.73
2019-04-11T23:37:52.333Z,5.40
2019-04-11T23:40:25.987Z,4.30
2019-04-11T23:42:59.566Z,5.60
2019-04-11T23:45:33.582Z,4.67
2019-04-11T23:48:07.301Z,5.63
2019-04-11T23:54:22.994Z,5.50
2019-04-11T23:56:53.385Z,4.63
2019-04-11T23:59:31.770Z,5.47
